createdAt,value
2023-06-13T00:01:38.369Z,88.90
2023-06-13T00:04:05.597Z,89.40
2023-06-13T00:06:35.714Z,89.50
2023-06-13T00:09:04.634Z,89.70
2023-06-13T00:11:31.468Z,90.00
2023-06-13T00:13:58.860Z,90.30
2023-06-13T00:16:26.511Z,90.50
2023-06-13T00:18:54.917Z,90.80
2023-06-13T00:21:21.919Z,90.80
2023-06-13T00:23:48.881Z,91.00
2023-06-13T00:26:15.670Z,90.80
2023-06-13T00:28:42.419Z,91.00
2023-06-13T00:31:09.205Z,91.10
2023-06-13T00:33:36.026Z,91.20
2023-06-13T00:36:02.923Z,91.50
2023-06-13T00:38:30.168Z,91.40
2023-06-13T00:40:57.186Z,91.40
2023-06-13T00:43:24.331Z,91.50
2023-06-13T00:45:51.185Z,91.70
2023-06-13T00:48:18.272Z,91.70
2023-06-13T00:50:45.777Z,91.90
2023-06-13T00:53:19.227Z,92.20
2023-06-13T00:55:47.582Z,92.20
2023-06-13T00:58:15.982Z,92.30
2023-06-13T01:00:45.591Z,92.60
2023-06-13T01:03:16.961Z,92.30
2023-06-13T01:05:44.884Z,92.50
2023-06-13T01:08:18.022Z,92.40
2023-06-13T01:10:50.712Z,92.80
2023-06-13T01:13:39.264Z,92.90
2023-06-13T01:16:26.983Z,93.20
2023-06-13T01:18:58.259Z,93.00
2023-06-13T01:21:26.367Z,93.30
2023-06-13T01:24:08.359Z,93.20
2023-06-13T01:26:59.395Z,93.40
2023-06-13T01:29:28.788Z,93.60
2023-06-13T01:31:58.005Z,93.70
2023-06-13T01:34:26.078Z,93.80
2023-06-13T01:36:53.389Z,93.90
2023-06-13T01:39:20.294Z,93.80
2023-06-13T01:41:47.106Z,94.00
2023-06-13T01:44:21.019Z,94.00
2023-06-13T01:47:24.165Z,94.00
2023-06-13T01:50:03.157Z,94.30
2023-06-13T01:52:38.560Z,94.50
2023-06-13T01:55:11.054Z,94.50
2023-06-13T01:57:49.732Z,94.80
2023-06-13T02:00:18.177Z,95.00
2023-06-13T02:02:45.555Z,95.10
2023-06-13T02:05:13.115Z,95.80
2023-06-13T02:07:39.971Z,95.60
2023-06-13T02:10:07.445Z,95.70
2023-06-13T02:12:34.670Z,95.80
2023-06-13T02:15:03.590Z,96.10
2023-06-13T02:17:31.011Z,96.20
2023-06-13T02:19:57.838Z,96.10
2023-06-13T02:22:24.660Z,96.30
2023-06-13T02:24:51.417Z,96.40
2023-06-13T02:27:18.262Z,96.70
2023-06-13T02:29:45.343Z,96.80
2023-06-13T02:32:12.178Z,96.80
2023-06-13T02:34:39.029Z,96.90
2023-06-13T02:37:06.126Z,97.10
2023-06-13T02:39:32.921Z,97.20
2023-06-13T02:41:59.683Z,97.10
2023-06-13T02:44:26.559Z,97.10
2023-06-13T02:46:53.378Z,97.20
2023-06-13T02:49:20.297Z,97.20
2023-06-13T02:51:47.174Z,97.50
2023-06-13T02:54:14.004Z,97.70
2023-06-13T02:56:40.834Z,97.60
2023-06-13T02:59:07.753Z,97.70
2023-06-13T03:01:34.631Z,98.00
2023-06-13T03:04:02.143Z,98.30
2023-06-13T03:06:31.734Z,98.00
2023-06-13T03:08:59.479Z,98.20
2023-06-13T03:11:26.686Z,98.10
2023-06-13T03:13:53.549Z,98.20
2023-06-13T03:16:22.761Z,98.20
2023-06-13T03:18:49.909Z,98.30
2023-06-13T03:21:16.859Z,98.30
2023-06-13T03:23:43.668Z,98.40
2023-06-13T03:26:10.895Z,98.50
2023-06-13T03:28:37.765Z,98.60
2023-06-13T03:31:05.403Z,98.50
2023-06-13T03:33:32.266Z,98.60
2023-06-13T03:35:59.476Z,98.60
2023-06-13T03:38:28.724Z,98.40
2023-06-13T03:40:55.820Z,98.40
2023-06-13T03:43:22.682Z,98.50
2023-06-13T03:45:49.845Z,98.40
2023-06-13T03:48:17.042Z,98.40
2023-06-13T03:50:44.061Z,98.40
2023-06-13T03:53:11.161Z,98.80
2023-06-13T03:55:38.092Z,98.40
2023-06-13T03:58:05.515Z,98.40
2023-06-13T04:00:35.190Z,98.30
2023-06-13T04:03:02.762Z,98.30
2023-06-13T04:05:29.832Z,98.20
2023-06-13T04:07:57.023Z,98.20
2023-06-13T04:10:23.962Z,98.30
2023-06-13T04:12:50.805Z,98.00
2023-06-13T04:15:17.604Z,98.10
2023-06-13T04:17:46.791Z,97.60
2023-06-13T04:20:18.762Z,97.10
2023-06-13T04:22:45.806Z,97.00
2023-06-13T04:25:12.678Z,97.20
2023-06-13T04:27:39.704Z,97.00
2023-06-13T04:30:07.771Z,97.10
2023-06-13T04:32:35.667Z,96.80
2023-06-13T04:35:03.278Z,96.80
2023-06-13T04:37:32.088Z,97.00
2023-06-13T04:39:59.443Z,94.80
2023-06-13T04:42:29.360Z,87.70
2023-06-13T04:44:57.664Z,75.00
2023-06-13T04:47:27.398Z,66.50
2023-06-13T04:50:01.208Z,58.40
2023-06-13T04:52:34.558Z,55.10
2023-06-13T04:55:02.034Z,51.90
2023-06-13T04:57:29.356Z,50.10
2023-06-13T04:59:57.043Z,51.20
2023-06-13T05:02:24.030Z,56.20
2023-06-13T05:04:50.729Z,61.40
2023-06-13T05:07:17.909Z,68.40
2023-06-13T05:09:44.903Z,74.30
2023-06-13T05:12:12.132Z,79.00
2023-06-13T05:14:41.288Z,83.10
2023-06-13T05:17:08.658Z,85.60
2023-06-13T05:19:36.973Z,87.80
2023-06-13T05:22:05.215Z,89.60
2023-06-13T05:24:32.458Z,90.10
2023-06-13T05:27:00.171Z,90.80
2023-06-13T05:29:27.614Z,90.90
2023-06-13T05:31:54.883Z,91.00
2023-06-13T05:34:22.381Z,91.30
2023-06-13T05:36:49.233Z,91.30
2023-06-13T05:39:16.520Z,91.50
2023-06-13T05:41:43.204Z,91.40
2023-06-13T05:44:09.854Z,91.60
2023-06-13T05:46:36.589Z,91.90
2023-06-13T05:49:03.408Z,91.90
2023-06-13T05:51:30.669Z,91.30
2023-06-13T05:53:57.436Z,91.30
2023-06-13T05:56:24.206Z,91.60
2023-06-13T05:58:52.692Z,90.60
2023-06-13T06:01:22.203Z,90.50
2023-06-13T06:03:49.162Z,90.10
2023-06-13T06:06:15.928Z,90.80
2023-06-13T06:08:42.660Z,90.70
2023-06-13T06:11:09.535Z,91.00
2023-06-13T06:13:36.290Z,90.50
2023-06-13T06:16:03.006Z,87.90
2023-06-13T06:18:29.744Z,86.80
2023-06-13T06:20:56.645Z,84.10
2023-06-13T06:23:23.470Z,82.70
2023-06-13T06:25:50.364Z,82.50
2023-06-13T06:28:17.226Z,82.70
2023-06-13T06:30:44.143Z,81.90
2023-06-13T06:33:11.209Z,82.00
2023-06-13T06:35:38.122Z,81.70
2023-06-13T06:38:04.929Z,82.80
2023-06-13T06:40:31.674Z,82.30
2023-06-13T06:42:58.454Z,81.70
2023-06-13T06:45:25.249Z,82.50
2023-06-13T06:47:52.250Z,81.70
2023-06-13T06:50:19.099Z,82.10
2023-06-13T06:52:45.987Z,81.80
2023-06-13T06:55:12.833Z,81.60
2023-06-13T06:57:39.583Z,80.10
2023-06-13T07:00:09.094Z,78.10
2023-06-13T07:02:35.970Z,77.80
2023-06-13T07:05:04.714Z,78.10
2023-06-13T07:07:31.532Z,78.30
2023-06-13T07:09:58.277Z,78.10
2023-06-13T07:12:25.024Z,78.50
2023-06-13T07:14:51.758Z,76.90
2023-06-13T07:17:18.511Z,76.80
2023-06-13T07:19:45.218Z,74.70
2023-06-13T07:22:11.953Z,76.20
2023-06-13T07:24:38.669Z,76.50
2023-06-13T07:27:05.655Z,76.20
2023-06-13T07:29:32.415Z,76.40
2023-06-13T07:31:59.220Z,76.10
2023-06-13T07:34:45.873Z,75.90
2023-06-13T07:37:12.637Z,75.60
2023-06-13T07:39:39.371Z,75.90
2023-06-13T07:42:07.361Z,75.20
2023-06-13T07:44:34.152Z,77.40
2023-06-13T07:47:01.460Z,76.60
2023-06-13T07:49:28.109Z,77.60
2023-06-13T07:51:54.825Z,75.70
2023-06-13T07:54:23.008Z,75.50
2023-06-13T07:56:51.673Z,73.20
2023-06-13T07:59:18.670Z,73.20
2023-06-13T08:01:45.452Z,74.20
2023-06-13T08:04:12.361Z,72.60
2023-06-13T08:06:40.264Z,72.70
2023-06-13T08:09:12.433Z,74.20
2023-06-13T08:11:39.776Z,75.20
2023-06-13T08:14:08.796Z,72.90
2023-06-13T08:16:37.922Z,74.60
2023-06-13T08:19:05.526Z,74.90
2023-06-13T08:21:35.131Z,74.30
2023-06-13T08:24:01.925Z,73.20
2023-06-13T08:26:33.568Z,73.00
2023-06-13T08:29:04.277Z,73.30
2023-06-13T08:34:09.560Z,73.30
2023-06-13T08:36:37.279Z,74.20
2023-06-13T08:39:07.568Z,74.30
2023-06-13T08:41:34.945Z,74.50
2023-06-13T08:44:02.791Z,73.80
2023-06-13T08:46:30.400Z,73.20
2023-06-13T08:48:57.554Z,73.70
2023-06-13T08:51:25.128Z,72.50
2023-06-13T08:54:01.028Z,72.30
2023-06-13T08:56:33.758Z,72.50
2023-06-13T08:59:08.627Z,71.90
2023-06-13T09:04:08.673Z,70.40
2023-06-13T09:06:38.543Z,70.60
2023-06-13T09:09:09.291Z,69.70
2023-06-13T09:11:36.966Z,69.50
2023-06-13T09:14:05.819Z,68.30
2023-06-13T09:16:33.386Z,68.20
2023-06-13T09:19:00.934Z,69.10
2023-06-13T09:21:29.841Z,69.40
2023-06-13T09:23:57.813Z,70.10
2023-06-13T09:26:26.219Z,71.10
2023-06-13T09:28:53.111Z,70.40
2023-06-13T09:31:19.953Z,68.50
2023-06-13T09:33:46.868Z,68.60
2023-06-13T09:36:13.773Z,68.30
2023-06-13T09:38:42.595Z,67.20
2023-06-13T09:41:13.021Z,67.80
2023-06-13T09:43:40.105Z,67.90
2023-06-13T09:46:10.025Z,67.30
2023-06-13T09:48:36.976Z,65.50
2023-06-13T09:51:12.284Z,67.40
2023-06-13T09:53:40.169Z,68.10
2023-06-13T09:56:13.666Z,68.30
2023-06-13T09:58:41.673Z,67.60
2023-06-13T10:01:16.362Z,68.70
2023-06-13T10:03:45.026Z,69.50
2023-06-13T10:06:12.976Z,71.00
2023-06-13T10:08:40.402Z,68.80
2023-06-13T10:11:16.840Z,69.50
2023-06-13T10:13:57.410Z,69.50
2023-06-13T10:16:26.037Z,70.60
2023-06-13T10:18:54.886Z,70.00
2023-06-13T10:21:22.901Z,69.80
2023-06-13T10:23:51.367Z,68.30
2023-06-13T10:26:40.392Z,70.00
2023-06-13T10:29:22.095Z,69.00
2023-06-13T10:31:51.715Z,69.30
2023-06-13T10:34:43.863Z,66.30
2023-06-13T10:37:23.879Z,66.20
2023-06-13T10:40:20.646Z,68.60
2023-06-13T10:42:56.393Z,65.40
2023-06-13T10:45:25.802Z,66.30
2023-06-13T10:47:52.674Z,67.50
2023-06-13T10:50:21.969Z,66.70
2023-06-13T10:52:50.133Z,63.20
2023-06-13T10:55:25.037Z,63.70
2023-06-13T10:57:53.630Z,66.20
2023-06-13T11:00:25.425Z,65.50
2023-06-13T11:02:59.378Z,65.60
2023-06-13T11:05:40.966Z,65.30
2023-06-13T11:08:16.901Z,63.90
2023-06-13T11:10:45.659Z,60.20
2023-06-13T11:13:32.599Z,61.00
2023-06-13T11:16:35.854Z,59.50
2023-06-13T11:19:07.702Z,60.50
2023-06-13T11:21:34.327Z,60.90
2023-06-13T11:24:01.796Z,62.60
2023-06-13T11:26:28.532Z,62.70
2023-06-13T11:28:56.006Z,62.70
2023-06-13T11:31:22.932Z,62.10
2023-06-13T11:33:52.189Z,63.30
2023-06-13T11:36:21.415Z,62.50
2023-06-13T11:39:05.632Z,62.20
2023-06-13T11:41:37.470Z,61.00
2023-06-13T11:44:04.109Z,61.50
2023-06-13T11:46:32.092Z,63.10
2023-06-13T11:48:59.786Z,63.20
2023-06-13T11:51:31.401Z,64.80
2023-06-13T11:54:02.902Z,65.20
2023-06-13T11:56:31.476Z,61.20
2023-06-13T11:58:58.558Z,62.40
2023-06-13T12:01:28.912Z,62.60
2023-06-13T12:04:01.366Z,60.10
2023-06-13T12:06:28.379Z,61.60
2023-06-13T12:08:55.381Z,59.80
2023-06-13T12:11:26.447Z,58.90
2023-06-13T12:13:57.672Z,58.40
2023-06-13T12:16:26.649Z,59.10
2023-06-13T12:18:54.857Z,59.70
2023-06-13T12:21:30.368Z,60.60
2023-06-13T12:23:58.926Z,59.50
2023-06-13T12:26:32.261Z,60.60
2023-06-13T12:29:07.915Z,60.60
2023-06-13T12:31:37.140Z,61.70
2023-06-13T12:34:11.788Z,61.30
2023-06-13T12:36:45.537Z,61.70
2023-06-13T12:39:15.509Z,61.20
2023-06-13T12:41:51.356Z,59.80
2023-06-13T12:44:21.588Z,61.10
2023-06-13T12:46:51.318Z,59.30
2023-06-13T12:49:23.085Z,60.20
2023-06-13T12:51:53.750Z,59.50
2023-06-13T12:54:27.017Z,59.00
2023-06-13T12:57:02.185Z,59.10
2023-06-13T12:59:33.150Z,59.20
2023-06-13T13:02:01.966Z,59.50
2023-06-13T13:04:36.889Z,61.60
2023-06-13T13:07:05.306Z,61.30
2023-06-13T13:09:33.407Z,58.90
2023-06-13T13:12:00.735Z,59.10
2023-06-13T13:14:28.394Z,59.40
2023-06-13T13:16:56.082Z,58.20
2023-06-13T13:19:23.712Z,60.30
2023-06-13T13:21:50.872Z,57.90
2023-06-13T13:24:17.851Z,57.50
2023-06-13T13:26:47.038Z,58.90
2023-06-13T13:29:14.113Z,59.40
2023-06-13T13:31:40.951Z,57.20
2023-06-13T13:36:40.394Z,56.70
2023-06-13T13:39:10.057Z,56.30
2023-06-13T13:41:37.570Z,56.60
2023-06-13T13:44:06.759Z,57.30
2023-06-13T13:46:33.925Z,56.70
2023-06-13T13:49:01.314Z,57.00
2023-06-13T13:51:30.169Z,56.30
2023-06-13T13:53:58.958Z,57.90
2023-06-13T13:56:26.345Z,58.00
2023-06-13T13:58:53.210Z,57.60
2023-06-13T14:01:21.304Z,58.80
2023-06-13T14:03:48.789Z,57.90
2023-06-13T14:06:15.951Z,57.80
2023-06-13T14:08:42.759Z,57.80
2023-06-13T14:11:09.552Z,57.30
2023-06-13T14:13:36.474Z,58.20
2023-06-13T14:16:04.537Z,58.90
2023-06-13T14:18:31.422Z,58.80
2023-06-13T14:20:59.163Z,59.10
2023-06-13T14:23:26.134Z,59.40
2023-06-13T14:25:52.902Z,59.90
2023-06-13T14:28:19.664Z,56.50
2023-06-13T14:30:46.924Z,56.10
2023-06-13T14:33:13.895Z,56.40
2023-06-13T14:35:40.953Z,56.70
2023-06-13T14:38:07.766Z,56.80
2023-06-13T14:40:34.570Z,56.50
2023-06-13T14:43:01.394Z,57.20
2023-06-13T14:45:28.225Z,56.60
2023-06-13T14:47:55.919Z,57.20
2023-06-13T14:50:22.986Z,57.60
2023-06-13T14:52:49.787Z,57.00
2023-06-13T14:55:16.625Z,55.70
2023-06-13T14:57:43.538Z,56.80
2023-06-13T15:00:11.795Z,56.20
2023-06-13T15:02:39.009Z,57.00
2023-06-13T15:05:06.529Z,56.20
2023-06-13T15:07:33.717Z,55.50
2023-06-13T15:10:00.586Z,56.70
2023-06-13T15:12:28.048Z,57.10
2023-06-13T15:14:55.434Z,56.70
2023-06-13T15:17:22.521Z,55.90
2023-06-13T15:19:49.596Z,57.20
2023-06-13T15:22:16.473Z,56.10
2023-06-13T15:24:43.181Z,57.20
2023-06-13T15:27:11.245Z,55.40
2023-06-13T15:29:38.122Z,56.00
2023-06-13T15:32:05.687Z,55.10
2023-06-13T15:34:33.133Z,55.20
2023-06-13T15:37:01.832Z,55.30
2023-06-13T15:39:28.932Z,54.30
2023-06-13T15:41:55.705Z,54.30
2023-06-13T15:44:22.539Z,54.50
2023-06-13T15:46:50.014Z,54.30
2023-06-13T15:49:16.848Z,55.40
2023-06-13T15:51:43.567Z,55.70
2023-06-13T15:54:10.324Z,55.20
2023-06-13T15:56:37.360Z,55.10
2023-06-13T15:59:04.392Z,55.40
2023-06-13T16:01:31.256Z,54.90
2023-06-13T16:03:58.164Z,56.40
2023-06-13T16:06:25.063Z,56.40
2023-06-13T16:08:51.841Z,55.40
2023-06-13T16:11:18.580Z,55.90
2023-06-13T16:13:45.910Z,55.50
2023-06-13T16:16:12.595Z,55.70
2023-06-13T16:18:39.921Z,56.10
2023-06-13T16:21:06.951Z,55.80
2023-06-13T16:23:34.092Z,54.30
2023-06-13T16:26:01.009Z,54.40
2023-06-13T16:28:27.728Z,54.80
2023-06-13T16:30:54.670Z,54.40
2023-06-13T16:33:21.408Z,53.20
2023-06-13T16:35:48.194Z,53.90
2023-06-13T16:38:17.928Z,53.20
2023-06-13T16:40:44.761Z,54.00
2023-06-13T16:43:11.736Z,53.40
2023-06-13T16:45:38.487Z,54.20
2023-06-13T16:48:06.316Z,55.70
2023-06-13T16:50:33.136Z,55.40
2023-06-13T16:53:00.287Z,56.20
2023-06-13T16:55:28.691Z,56.40
2023-06-13T16:57:56.393Z,55.70
2023-06-13T17:00:23.272Z,54.80
2023-06-13T17:02:50.101Z,53.80
2023-06-13T17:05:17.005Z,54.20
2023-06-13T17:07:44.115Z,54.40
2023-06-13T17:10:11.238Z,53.80
2023-06-13T17:12:42.741Z,54.50
2023-06-13T17:15:10.981Z,54.60
2023-06-13T17:17:38.168Z,54.80
2023-06-13T17:20:09.376Z,55.90
2023-06-13T17:22:36.494Z,55.90
2023-06-13T17:25:03.386Z,56.10
2023-06-13T17:27:30.123Z,56.00
2023-06-13T17:29:56.911Z,56.70
2023-06-13T17:32:23.922Z,56.30
2023-06-13T17:34:50.786Z,57.30
2023-06-13T17:37:18.737Z,56.70
2023-06-13T17:39:45.722Z,56.70
2023-06-13T17:42:12.609Z,56.80
2023-06-13T17:44:39.338Z,57.10
2023-06-13T17:47:07.411Z,57.30
2023-06-13T17:49:34.613Z,56.90
2023-06-13T17:52:01.613Z,57.00
2023-06-13T17:54:28.370Z,57.40
2023-06-13T17:56:55.124Z,57.30
2023-06-13T17:59:22.260Z,57.50
2023-06-13T18:01:50.307Z,57.80
2023-06-13T18:04:18.315Z,57.50
2023-06-13T18:06:45.352Z,57.40
2023-06-13T18:09:12.258Z,57.20
2023-06-13T18:11:39.071Z,56.20
2023-06-13T18:14:09.150Z,56.20
2023-06-13T18:16:36.921Z,55.80
2023-06-13T18:19:06.333Z,56.20
2023-06-13T18:21:35.216Z,55.40
2023-06-13T18:24:02.134Z,55.70
2023-06-13T18:26:29.158Z,56.00
2023-06-13T18:28:55.968Z,56.00
2023-06-13T18:31:22.916Z,56.50
2023-06-13T18:33:49.687Z,57.30
2023-06-13T18:36:16.785Z,57.10
2023-06-13T18:38:43.479Z,57.50
2023-06-13T18:41:10.328Z,57.80
2023-06-13T18:43:37.091Z,58.10
2023-06-13T18:46:03.818Z,58.70
2023-06-13T18:48:31.252Z,58.50
2023-06-13T18:50:58.350Z,59.20
2023-06-13T18:53:25.784Z,59.00
2023-06-13T18:55:52.610Z,59.30
2023-06-13T18:58:19.418Z,59.70
2023-06-13T19:00:46.394Z,59.90
2023-06-13T19:03:13.690Z,60.10
2023-06-13T19:05:40.736Z,60.30
2023-06-13T19:08:07.595Z,60.20
2023-06-13T19:10:34.749Z,60.90
2023-06-13T19:13:01.867Z,60.80
2023-06-13T19:15:29.005Z,60.90
2023-06-13T19:17:56.719Z,61.30
2023-06-13T19:20:24.215Z,61.80
2023-06-13T19:22:51.201Z,61.90
2023-06-13T19:25:18.652Z,61.80
2023-06-13T19:27:45.629Z,62.70
2023-06-13T19:30:14.609Z,62.60
2023-06-13T19:32:42.293Z,63.10
2023-06-13T19:35:09.846Z,63.50
2023-06-13T19:37:37.072Z,63.50
2023-06-13T19:40:11.025Z,63.90
2023-06-13T19:42:38.484Z,63.80
2023-06-13T19:45:06.749Z,64.10
2023-06-13T19:47:33.719Z,63.70
2023-06-13T19:50:00.588Z,64.70
2023-06-13T19:52:28.133Z,64.50
2023-06-13T19:54:57.915Z,64.50
2023-06-13T19:57:25.774Z,65.20
2023-06-13T19:59:52.821Z,64.50
2023-06-13T20:02:19.681Z,65.00
2023-06-13T20:04:46.813Z,65.80
2023-06-13T20:07:13.664Z,65.40
2023-06-13T20:09:40.403Z,65.90
2023-06-13T20:12:07.803Z,65.70
2023-06-13T20:14:36.424Z,65.90
2023-06-13T20:17:03.484Z,65.60
2023-06-13T20:19:30.347Z,66.30
2023-06-13T20:21:57.336Z,65.70
2023-06-13T20:24:24.355Z,66.30
2023-06-13T20:26:51.158Z,66.40
2023-06-13T20:29:17.892Z,66.10
2023-06-13T20:31:44.768Z,66.00
2023-06-13T20:34:13.228Z,65.80
2023-06-13T20:36:40.038Z,66.30
2023-06-13T20:39:07.149Z,66.20
2023-06-13T20:41:37.819Z,66.20
2023-06-13T20:44:11.504Z,66.40
2023-06-13T20:46:39.187Z,65.20
2023-06-13T20:49:07.053Z,65.50
2023-06-13T20:51:38.724Z,65.70
2023-06-13T20:54:08.436Z,65.20
2023-06-13T20:56:35.134Z,65.60
2023-06-13T20:59:01.857Z,65.30
2023-06-13T21:01:29.601Z,65.50
2023-06-13T21:03:56.949Z,65.60
2023-06-13T21:06:25.745Z,65.20
2023-06-13T21:08:52.578Z,64.70
2023-06-13T21:11:19.441Z,65.80
2023-06-13T21:13:46.186Z,64.30
2023-06-13T21:16:13.120Z,64.60
2023-06-13T21:18:39.855Z,65.10
2023-06-13T21:21:06.785Z,65.50
2023-06-13T21:23:33.568Z,66.50
2023-06-13T21:26:00.363Z,66.30
2023-06-13T21:28:27.070Z,67.90
2023-06-13T21:30:53.810Z,67.50
2023-06-13T21:33:21.835Z,67.70
2023-06-13T21:35:52.349Z,66.60
2023-06-13T21:38:21.865Z,68.00
2023-06-13T21:40:48.582Z,68.50
2023-06-13T21:43:15.591Z,69.20
2023-06-13T21:45:42.472Z,70.00
2023-06-13T21:48:09.225Z,69.60
2023-06-13T21:50:36.001Z,70.30
2023-06-13T21:53:03.193Z,70.30
2023-06-13T21:55:29.945Z,70.90
2023-06-13T21:57:56.660Z,71.60
2023-06-13T22:00:24.425Z,71.90
2023-06-13T22:02:52.379Z,71.20
2023-06-13T22:05:21.518Z,72.60
2023-06-13T22:07:48.309Z,72.50
2023-06-13T22:10:15.664Z,72.50
2023-06-13T22:12:47.014Z,73.30
2023-06-13T22:15:14.799Z,74.20
2023-06-13T22:17:43.903Z,73.70
2023-06-13T22:20:12.042Z,73.40
2023-06-13T22:22:39.021Z,74.90
2023-06-13T22:25:07.601Z,74.90
2023-06-13T22:27:34.385Z,74.80
2023-06-13T22:30:01.555Z,75.90
2023-06-13T22:32:28.411Z,75.90
2023-06-13T22:34:55.260Z,75.50
2023-06-13T22:37:22.051Z,76.20
2023-06-13T22:39:48.817Z,76.30
2023-06-13T22:42:15.678Z,76.80
2023-06-13T22:44:42.473Z,76.60
2023-06-13T22:47:09.255Z,76.70
2023-06-13T22:49:36.012Z,77.50
2023-06-13T22:52:04.633Z,76.50
2023-06-13T22:54:31.416Z,76.70
2023-06-13T22:56:58.285Z,76.70
2023-06-13T22:59:25.273Z,76.60
2023-06-13T23:01:52.155Z,76.20
2023-06-13T23:04:18.893Z,76.90
2023-06-13T23:06:45.725Z,76.80
2023-06-13T23:09:12.449Z,77.00
2023-06-13T23:11:39.210Z,76.50
2023-06-13T23:14:05.894Z,77.20
2023-06-13T23:16:32.638Z,76.60
2023-06-13T23:18:59.415Z,76.40
2023-06-13T23:21:28.885Z,77.50
2023-06-13T23:23:55.891Z,77.30
2023-06-13T23:26:23.942Z,77.20
2023-06-13T23:28:51.797Z,77.70
2023-06-13T23:31:18.949Z,77.00
2023-06-13T23:33:45.987Z,77.30
2023-06-13T23:36:15.814Z,78.40
2023-06-13T23:38:43.454Z,77.50
2023-06-13T23:41:11.526Z,78.60
2023-06-13T23:43:38.316Z,78.10
2023-06-13T23:46:05.463Z,80.60
2023-06-13T23:48:32.512Z,78.30
2023-06-13T23:50:59.888Z,79.50
2023-06-13T23:53:26.658Z,77.90
2023-06-13T23:55:53.347Z,79.50
2023-06-13T23:58:20.232Z,79.70
